Weather History for KCMD - January, 2014

Change the Weather History Date:

Sunday, January 5, 2014

  Actual Average Record
Temperature  
Mean Temperature 38 °F -  
Max Temperature 52 °F - - ()
Min Temperature 23 °F - - ()
Degree Days  
Heating Degree Days 27    
Moisture  
Dew Point 38 °F    
Average Humidity 90    
Maximum Humidity 96    
Minimum Humidity 81    
Precipitation  
Precipitation 0.16 in - - ()
Sea Level Pressure  
Sea Level Pressure 29.95 in    
Wind  
Wind Speed 7 mph (SSE)    
Max Wind Speed 18 mph    
Max Gust Speed 32 mph    
Visibility 8 miles    
Events Rain    
T = Trace of Precipitation, MM = Missing Value Source: NWS Daily Summary

Daily Weather History Graph

Daily Weather History Graph

Search for Another Location

Airport or City:

Trip Planner

Search our weather history database for the weather conditions in past years. The results will help you decide how hot, cold, wet, or windy it might be!

Date:

Astronomy

Jan. 05, 2014 Rise Set
Actual Time 6:54 AM CST 4:51 PM CST
Civil Twilight 6:26 AM CST 5:19 PM CST
Nautical Twilight 5:55 AM CST 5:50 PM CST
Astronomical Twilight 5:24 AM CST 6:21 PM CST
Moon 9:49 AM CST (1/5) 10:04 PM CST (1/5)
Length of Visible Light 10h 53m
Length of Day
9h 57m
Waxing Crescent, 25% of the Moon is Illuminated
Jan 5
Waxing Crescent
Jan 7
First Quarter
Jan 15
Full
Jan 23
Last Quarter
Jan 30
New

Hourly Weather History & Observations

Time (CST) Temp. Windchill Dew Point Humidity Pressure Visibility Wind Dir Wind Speed Gust Speed Precip Events Conditions
12:15 AM 34.0 °F - 32.2 °F 93% 30.11 in 10.0 mi Calm Calm - N/A   Clear
12:35 AM 34.0 °F 28.0 °F 32.2 °F 93% 30.10 in 10.0 mi ESE 6.9 mph - N/A   Clear
12:55 AM 34.0 °F 29.8 °F 32.4 °F 94% 30.11 in 10.0 mi ESE 4.6 mph - N/A   Scattered Clouds
1:15 AM 34.5 °F - 32.7 °F 93% 30.11 in 10.0 mi Calm Calm - N/A   Mostly Cloudy
1:35 AM 35.1 °F - 33.1 °F 92% 30.11 in 7.0 mi Calm Calm - N/A   Overcast
1:55 AM 35.6 °F 32.8 °F 33.3 °F 91% 30.11 in 10.0 mi ESE 3.5 mph - N/A   Overcast
2:15 AM 36.0 °F - 33.8 °F 92% 30.11 in 10.0 mi Calm Calm - N/A   Overcast
2:35 AM 36.5 °F 31.8 °F 34.0 °F 91% 30.11 in 10.0 mi ESE 5.8 mph - N/A   Overcast
2:55 AM 36.5 °F 33.9 °F 33.8 °F 90% 30.10 in 10.0 mi SE 3.5 mph - N/A   Overcast
3:15 AM 36.5 °F 32.7 °F 33.8 °F 90% 30.10 in 10.0 mi ESE 4.6 mph - N/A   Overcast
3:35 AM 36.5 °F 32.7 °F 33.8 °F 90% 30.09 in 10.0 mi ESE 4.6 mph - N/A   Overcast
3:55 AM 36.5 °F 31.8 °F 33.4 °F 89% 30.08 in 10.0 mi ESE 5.8 mph - N/A   Overcast
4:15 AM 36.5 °F 30.3 °F 33.1 °F 87% 30.07 in 7.0 mi ESE 8.1 mph - N/A   Mostly Cloudy
4:35 AM 36.5 °F 29.2 °F 32.9 °F 87% 30.06 in 10.0 mi ESE 10.4 mph - N/A   Mostly Cloudy
4:55 AM 36.5 °F 30.3 °F 32.9 °F 87% 30.06 in 10.0 mi ESE 8.1 mph - N/A   Mostly Cloudy
5:15 AM 36.9 °F 32.2 °F 32.9 °F 86% 30.05 in 10.0 mi ESE 5.8 mph - N/A   Overcast
5:35 AM 37.0 °F 31.6 °F 32.9 °F 85% 30.05 in 10.0 mi ESE 6.9 mph - N/A   Mostly Cloudy
5:55 AM 37.4 °F 31.4 °F 32.9 °F 84% 30.04 in 10.0 mi ESE 8.1 mph - N/A   Mostly Cloudy
6:15 AM 37.6 °F 32.3 °F 33.1 °F 84% 30.05 in 10.0 mi ESE 6.9 mph - N/A   Mostly Cloudy
6:35 AM 37.9 °F 31.5 °F 33.4 °F 84% 30.04 in 10.0 mi ESE 9.2 mph - N/A   Overcast
6:55 AM 38.3 °F 33.2 °F 33.6 °F 83% 30.04 in 10.0 mi SE 6.9 mph - N/A   Mostly Cloudy
7:15 AM 38.3 °F 33.2 °F 33.8 °F 84% 30.03 in 10.0 mi SE 6.9 mph - N/A   Mostly Cloudy
7:35 AM 38.3 °F 32.5 °F 33.8 °F 84% 30.03 in 10.0 mi ESE 8.1 mph - N/A   Overcast
7:55 AM 38.7 °F 32.4 °F 34.2 °F 84% 30.02 in 10.0 mi ESE 9.2 mph - N/A   Overcast
8:15 AM 39.2 °F 34.2 °F 34.7 °F 84% 30.02 in 10.0 mi SE 6.9 mph - N/A   Overcast
8:35 AM 40.1 °F 34.1 °F 35.2 °F 83% 30.01 in 10.0 mi ESE 9.2 mph - N/A   Overcast
8:55 AM 40.8 °F 36.2 °F 36.0 °F 83% 30.01 in 10.0 mi SE 6.9 mph - N/A   Overcast
9:15 AM 41.5 °F 37.8 °F 36.5 °F 82% 30.01 in 10.0 mi SE 5.8 mph - N/A   Mostly Cloudy
9:35 AM 42.1 °F 37.7 °F 37.0 °F 82% 30.00 in 10.0 mi SSE 6.9 mph - N/A   Overcast
9:55 AM 42.6 °F 39.0 °F 37.6 °F 82% 30.00 in 10.0 mi South 5.8 mph - N/A   Overcast
10:15 AM 43.2 °F 39.7 °F 37.9 °F 82% 29.99 in 10.0 mi SSE 5.8 mph - N/A   Overcast
10:35 AM 44.1 °F 40.1 °F 38.7 °F 81% 29.96 in 10.0 mi SSE 6.9 mph - N/A   Mostly Cloudy
10:55 AM 44.6 °F 39.2 °F 39.4 °F 82% 29.96 in 10.0 mi South 10.4 mph - N/A   Mostly Cloudy
11:15 AM 44.8 °F 40.4 °F 40.6 °F 85% 29.94 in 5.0 mi South 8.1 mph - N/A   Drizzle
11:35 AM 44.6 °F 39.7 °F 42.1 °F 91% 29.94 in 5.0 mi South 9.2 mph - N/A   Drizzle
11:55 AM 44.8 °F 39.9 °F 42.6 °F 92% 29.92 in 7.0 mi South 9.2 mph - N/A   Mostly Cloudy
12:15 PM 44.6 °F 40.7 °F 42.8 °F 93% 29.91 in 2.5 mi South 6.9 mph - N/A   Drizzle
12:35 PM 44.8 °F 40.4 °F 43.5 °F 95% 29.87 in 7.0 mi SSE 8.1 mph - N/A   Overcast
12:55 PM 46.0 °F 40.6 °F 44.6 °F 95% 29.86 in 7.0 mi SSE 11.5 mph 18.4 mph N/A   Overcast
1:15 PM 46.9 °F - 45.3 °F 94% 29.84 in 7.0 mi SSE 11.5 mph 18.4 mph N/A   Overcast
1:35 PM 47.3 °F - 45.5 °F 93% 29.82 in 7.0 mi SSE 12.7 mph 18.4 mph N/A   Overcast
1:55 PM 47.3 °F - 45.7 °F 94% 29.81 in 3.0 mi SSE 10.4 mph 17.3 mph N/A   Overcast
2:15 PM 47.3 °F - 46.0 °F 95% 29.81 in 4.0 mi SSE 12.7 mph - N/A   Overcast
2:35 PM 47.7 °F - 46.6 °F 96% 29.80 in 4.0 mi South 9.2 mph - N/A   Overcast
2:55 PM 48.4 °F - 46.9 °F 95% 29.80 in 7.0 mi South 11.5 mph - N/A   Overcast
3:15 PM 49.6 °F - 47.7 °F 93% 29.79 in 7.0 mi South 13.8 mph 20.7 mph N/A   Overcast
3:35 PM 50.7 °F - 48.2 °F 91% 29.78 in 10.0 mi South 15.0 mph 21.9 mph N/A   Overcast
3:55 PM 51.3 °F - 48.4 °F 90% 29.78 in 10.0 mi South 10.4 mph 19.6 mph N/A   Overcast
4:15 PM 51.6 °F - 48.9 °F 90% 29.77 in 7.0 mi South 12.7 mph 18.4 mph 0.01 in Rain Rain
4:35 PM 51.6 °F - 49.5 °F 92% 29.77 in 7.0 mi South 12.7 mph 19.6 mph 0.02 in Rain Rain
4:55 PM 51.4 °F - 49.8 °F 94% 29.76 in 10.0 mi South 15.0 mph 19.6 mph 0.03 in   Mostly Cloudy
5:15 PM 51.6 °F - 50.0 °F 94% 29.76 in 10.0 mi South 15.0 mph - N/A   Overcast
5:35 PM 52.0 °F - 50.0 °F 93% 29.76 in 10.0 mi South 11.5 mph 17.3 mph N/A Rain Light Rain
5:55 PM 52.0 °F - 50.4 °F 94% 29.75 in 7.0 mi South 13.8 mph 18.4 mph N/A Rain Rain
6:15 PM 52.2 °F - 50.7 °F 95% 29.75 in 7.0 mi South 12.7 mph 17.3 mph 0.01 in Rain Rain
6:35 PM 52.3 °F - 50.9 °F 95% 29.75 in 7.0 mi South 13.8 mph 20.7 mph 0.01 in   Drizzle
6:55 PM 52.7 °F - 51.4 °F 95% 29.76 in 5.0 mi SW 6.9 mph - 0.02 in Rain Rain
7:15 PM 49.5 °F - 47.7 °F 94% 29.81 in 5.0 mi WNW 13.8 mph 24.2 mph 0.02 in Rain Heavy Rain
7:35 PM 42.4 °F 35.3 °F 41.0 °F 95% 29.86 in 4.0 mi WNW 13.8 mph 23.0 mph 0.05 in Rain Heavy Rain
7:55 PM 39.7 °F 33.7 °F 38.5 °F 95% 29.87 in 4.0 mi NW 9.2 mph 21.9 mph 0.07 in Rain Rain
8:15 PM 36.7 °F 27.6 °F 35.2 °F 95% 29.90 in 5.0 mi WNW 15.0 mph 24.2 mph 0.02 in Rain Light Rain
8:35 PM 34.5 °F 23.8 °F 33.1 °F 94% 29.91 in 5.0 mi NW 18.4 mph 25.3 mph 0.03 in Rain Light Rain
8:55 PM 32.4 °F 22.5 °F 30.9 °F 94% 29.94 in 5.0 mi WNW 13.8 mph 25.3 mph 0.04 in Rain Light Rain
9:15 PM 30.7 °F 20.0 °F 29.1 °F 94% 29.96 in 4.0 mi WNW 15.0 mph 25.3 mph N/A   Overcast
9:35 PM 28.9 °F 19.8 °F 27.3 °F 94% 29.98 in 10.0 mi WNW 10.4 mph 27.6 mph N/A   Overcast
9:55 PM 28.2 °F 17.7 °F 26.4 °F 93% 29.99 in 10.0 mi WNW 12.7 mph 20.7 mph N/A   Overcast
10:15 PM 27.7 °F 17.1 °F 25.9 °F 93% 30.00 in 10.0 mi WNW 12.7 mph 20.7 mph N/A   Overcast
10:35 PM 26.2 °F 14.7 °F 24.1 °F 92% 30.01 in 10.0 mi NW 13.8 mph 32.2 mph N/A   Overcast
10:55 PM 25.2 °F 16.5 °F 22.6 °F 90% 30.02 in 10.0 mi WNW 8.1 mph 29.9 mph N/A   Overcast
11:15 PM 24.8 °F 12.4 °F 22.1 °F 89% 30.04 in 10.0 mi NW 15.0 mph 26.5 mph N/A   Overcast
11:35 PM 24.1 °F 12.0 °F 20.7 °F 87% 30.05 in 10.0 mi NW 13.8 mph 25.3 mph N/A   Overcast
11:55 PM 23.4 °F 12.2 °F 20.3 °F 88% 30.06 in 10.0 mi NW 11.5 mph 24.2 mph N/A   Overcast